Time,TemperatureF,DewpointF,PressureIn,WindDirection,WindDirectionDegrees,WindSpeedMPH,WindSpeedGustMPH,Humidity,HourlyPrecipIn,Conditions,Clouds,dailyrainin,SoftwareType,DateUTC
2013-09-23 00:13:00,65.0,57.0,29.59,ENE,68,0.0,1.0,75,0.00,,,0.00,,2013-09-23 06:13:00,
2013-09-23 00:22:00,64.0,56.0,29.59,ENE,68,0.0,0.0,75,0.00,,,0.00,,2013-09-23 06:22:00,
2013-09-23 00:52:00,65.0,56.0,29.59,ENE,68,0.0,0.0,74,0.00,,,0.00,,2013-09-23 06:52:00,
2013-09-23 01:12:00,65.0,56.0,29.60,ESE,110,0.0,1.0,73,0.00,,,0.00,,2013-09-23 07:12:00,
2013-09-23 01:22:00,65.0,56.0,29.60,SE,129,0.0,1.0,73,0.00,,,0.00,,2013-09-23 07:22:00,
2013-09-23 01:42:00,67.0,54.0,29.60,NW,321,1.0,6.0,64,0.00,,,0.00,,2013-09-23 07:42:00,
2013-09-23 01:52:00,67.0,55.0,29.61,SE,127,0.0,1.0,66,0.00,,,0.00,,2013-09-23 07:52:00,
2013-09-23 02:11:00,66.0,56.0,29.61,SSE,153,0.0,0.0,69,0.00,,,0.00,,2013-09-23 08:11:00,
2013-09-23 02:23:00,65.0,55.0,29.61,ESE,110,0.0,1.0,70,0.00,,,0.00,,2013-09-23 08:23:00,
2013-09-23 02:42:00,65.0,55.0,29.62,West,266,0.0,1.0,71,0.00,,,0.00,,2013-09-23 08:42:00,
2013-09-23 02:52:00,64.0,54.0,29.62,West,266,0.0,0.0,71,0.00,,,0.00,,2013-09-23 08:52:00,
2013-09-23 03:11:00,65.0,55.0,29.62,SE,130,0.0,2.0,69,0.00,,,0.00,,2013-09-23 09:11:00,
2013-09-23 03:21:00,64.0,54.0,29.62,WSW,251,0.0,1.0,71,0.00,,,0.00,,2013-09-23 09:21:00,
2013-09-23 03:43:00,63.0,54.0,29.62,WSW,246,0.0,0.0,72,0.00,,,0.00,,2013-09-23 09:43:00,
2013-09-23 03:53:00,63.0,54.0,29.62,NNW,341,0.0,0.0,72,0.00,,,0.00,,2013-09-23 09:53:00,
2013-09-23 04:13:00,62.0,54.0,29.63,NE,41,0.0,2.0,74,0.00,,,0.00,,2013-09-23 10:13:00,
2013-09-23 04:23:00,61.0,54.0,29.63,NW,315,0.0,1.0,77,0.00,,,0.00,,2013-09-23 10:23:00,
2013-09-23 04:42:00,61.0,54.0,29.63,WNW,292,0.0,1.0,77,0.00,,,0.00,,2013-09-23 10:42:00,
2013-09-23 04:52:00,60.0,53.0,29.64,SSW,193,0.0,1.0,79,0.00,,,0.00,,2013-09-23 10:52:00,
2013-09-23 05:12:00,60.0,53.0,29.64,SW,216,0.0,1.0,78,0.00,,,0.00,,2013-09-23 11:12:00,
2013-09-23 05:21:00,59.0,53.0,29.65,SW,215,0.0,0.0,80,0.00,,,0.00,,2013-09-23 11:21:00,
2013-09-23 05:42:00,58.0,52.0,29.65,SW,215,0.0,0.0,80,0.00,,,0.00,,2013-09-23 11:42:00,
2013-09-23 05:52:00,58.0,52.0,29.65,SW,215,0.0,0.0,79,0.00,,,0.00,,2013-09-23 11:52:00,
2013-09-23 06:11:00,57.0,51.0,29.66,SW,215,0.0,0.0,80,0.00,,,0.00,,2013-09-23 12:11:00,
2013-09-23 06:22:00,57.0,51.0,29.67,SSE,152,0.0,1.0,79,0.00,,,0.00,,2013-09-23 12:22:00,
2013-09-23 06:52:00,56.0,51.0,29.67,North,360,0.0,2.0,82,0.00,,,0.00,,2013-09-23 12:52:00,
2013-09-23 07:11:00,56.0,50.0,29.68,WNW,284,0.0,2.0,81,0.00,,,0.00,,2013-09-23 13:11:00,
2013-09-23 07:22:00,55.0,50.0,29.69,NW,316,0.0,0.0,83,0.00,,,0.00,,2013-09-23 13:22:00,
2013-09-23 07:42:00,55.0,50.0,29.70,NW,316,0.0,0.0,84,0.00,,,0.00,,2013-09-23 13:42:00,
2013-09-23 07:52:00,54.0,50.0,29.70,NW,316,0.0,0.0,86,0.00,,,0.00,,2013-09-23 13:52:00,
2013-09-23 08:11:00,55.0,51.0,29.72,NW,321,0.0,1.0,87,0.00,,,0.00,,2013-09-23 14:11:00,
2013-09-23 08:22:00,56.0,52.0,29.72,SSW,210,0.0,1.0,87,0.00,,,0.00,,2013-09-23 14:22:00,
2013-09-23 08:42:00,57.0,53.0,29.73,SW,214,0.0,0.0,86,0.00,,,0.00,,2013-09-23 14:42:00,
2013-09-23 08:52:00,58.0,53.0,29.73,SSE,162,0.0,1.0,84,0.00,,,0.00,,2013-09-23 14:52:00,
2013-09-23 09:12:00,60.0,54.0,29.74,SSE,162,0.0,0.0,82,0.00,,,0.00,,2013-09-23 15:12:00,
2013-09-23 09:21:00,62.0,53.0,29.75,SSE,159,0.0,1.0,73,0.00,,,0.00,,2013-09-23 15:21:00,
2013-09-23 09:43:00,65.0,51.0,29.75,North,359,0.0,3.0,61,0.00,,,0.00,,2013-09-23 15:43:00,
2013-09-23 09:54:00,67.0,49.0,29.76,NNE,16,1.0,3.0,52,0.00,,,0.00,,2013-09-23 15:54:00,
2013-09-23 10:12:00,68.0,45.0,29.76,NNE,32,2.0,7.0,44,0.00,,,0.00,,2013-09-23 16:12:00,
2013-09-23 10:24:00,69.0,43.0,29.76,NW,321,2.0,6.0,39,0.00,,,0.00,,2013-09-23 16:24:00,
2013-09-23 10:53:00,72.0,47.0,29.77,ENE,65,0.0,6.0,41,0.00,,,0.00,,2013-09-23 16:53:00,
2013-09-23 11:12:00,73.0,46.0,29.77,NNE,30,0.0,3.0,38,0.00,,,0.00,,2013-09-23 17:12:00,
2013-09-23 11:24:00,74.0,46.0,29.76,NW,323,0.0,4.0,37,0.00,,,0.00,,2013-09-23 17:24:00,
2013-09-23 11:42:00,74.0,45.0,29.76,NE,46,0.0,4.0,36,0.00,,,0.00,,2013-09-23 17:42:00,
2013-09-23 11:52:00,75.0,44.0,29.76,SE,131,0.0,4.0,33,0.00,,,0.00,,2013-09-23 17:52:00,
2013-09-23 12:12:00,77.0,43.0,29.76,SSW,204,0.0,4.0,30,0.00,,,0.00,,2013-09-23 18:12:00,
2013-09-23 12:21:00,77.0,41.0,29.76,NE,51,0.0,3.0,28,0.00,,,0.00,,2013-09-23 18:21:00,
2013-09-23 12:42:00,78.0,43.0,29.76,NE,37,0.0,5.0,29,0.00,,,0.00,,2013-09-23 18:42:00,
2013-09-23 12:52:00,78.0,44.0,29.75,NE,37,2.0,5.0,30,0.00,,,0.00,,2013-09-23 18:52:00,
2013-09-23 13:12:00,79.0,44.0,29.75,NE,41,1.0,4.0,29,0.00,,,0.00,,2013-09-23 19:12:00,
2013-09-23 13:22:00,79.0,42.0,29.75,NNW,342,0.0,3.0,27,0.00,,,0.00,,2013-09-23 19:22:00,
2013-09-23 13:42:00,79.0,43.0,29.74,North,358,2.0,6.0,28,0.00,,,0.00,,2013-09-23 19:42:00,
2013-09-23 13:53:00,79.0,43.0,29.74,North,358,2.0,6.0,28,0.00,,,0.00,,2013-09-23 19:53:00,
2013-09-23 14:02:00,79.0,43.0,29.74,North,358,2.0,6.0,28,0.00,,,0.00,,2013-09-23 20:02:00,
2013-09-23 14:22:00,80.0,42.0,29.74,NE,46,1.0,5.0,26,0.00,,,0.00,,2013-09-23 20:22:00,
2013-09-23 14:32:00,80.0,42.0,29.74,NE,46,1.0,5.0,26,0.00,,,0.00,,2013-09-23 20:32:00,
2013-09-23 14:42:00,80.0,42.0,29.74,NE,46,1.0,5.0,26,0.00,,,0.00,,2013-09-23 20:42:00,
2013-09-23 15:11:00,81.0,41.0,29.73,ENE,62,0.0,6.0,24,0.00,,,0.00,,2013-09-23 21:11:00,
2013-09-23 15:23:00,81.0,42.0,29.73,North,359,1.0,5.0,25,0.00,,,0.00,,2013-09-23 21:23:00,
2013-09-23 15:44:00,81.0,39.0,29.73,NE,43,1.0,4.0,22,0.00,,,0.00,,2013-09-23 21:44:00,
2013-09-23 16:24:00,81.0,41.0,29.72,NNE,19,0.0,2.0,24,0.00,,,0.00,,2013-09-23 22:24:00,
2013-09-23 16:43:00,81.0,43.0,29.72,NE,48,0.0,4.0,26,0.00,,,0.00,,2013-09-23 22:43:00,
2013-09-23 17:12:00,81.0,43.0,29.72,North,351,0.0,3.0,26,0.00,,,0.00,,2013-09-23 23:12:00,
2013-09-23 17:22:00,81.0,43.0,29.72,North,351,0.0,3.0,26,0.00,,,0.00,,2013-09-23 23:22:00,
2013-09-23 18:12:00,77.0,39.0,29.72,NE,56,0.0,4.0,26,0.00,,,0.00,,2013-09-24 00:12:00,
2013-09-23 18:22:00,76.0,44.0,29.72,NW,309,0.0,0.0,32,0.00,,,0.00,,2013-09-24 00:22:00,
2013-09-23 21:44:00,60.0,49.0,29.80,NW,312,0.0,0.0,68,0.00,,,0.00,,2013-09-24 03:44:00,
2013-09-23 21:54:00,59.0,48.0,29.80,NW,311,0.0,0.0,68,0.00,,,0.00,,2013-09-24 03:54:00,
2013-09-23 22:14:00,59.0,48.0,29.81,NW,311,0.0,0.0,67,0.00,,,0.00,,2013-09-24 04:14:00,
2013-09-23 22:24:00,58.0,47.0,29.82,NW,311,0.0,0.0,67,0.00,,,0.00,,2013-09-24 04:24:00,
2013-09-23 22:44:00,58.0,49.0,29.82,NW,311,0.0,0.0,71,0.00,,,0.00,,2013-09-24 04:44:00,
2013-09-23 23:23:00,57.0,50.0,29.83,NW,311,0.0,0.0,77,0.00,,,0.00,,2013-09-24 05:23:00,
2013-09-23 23:53:00,56.0,50.0,29.84,NW,311,0.0,0.0,79,0.00,,,0.00,,2013-09-24 05:53:00,